sensor_id;sensor_type;location;lat;lon;timestamp;temperature;humidity
2893;DHT22;1456;51.840;12.184;2023-02-07T00:01:32;-5.10;99.90
2893;DHT22;1456;51.840;12.184;2023-02-07T00:04:01;-5.10;99.90
2893;DHT22;1456;51.840;12.184;2023-02-07T00:06:29;-5.20;99.90
2893;DHT22;1456;51.840;12.184;2023-02-07T00:08:58;-5.20;99.90
2893;DHT22;1456;51.840;12.184;2023-02-07T00:11:23;-5.20;99.90
2893;DHT22;1456;51.840;12.184;2023-02-07T00:13:54;-5.20;99.90
2893;DHT22;1456;51.840;12.184;2023-02-07T00:16:21;-5.30;99.90
2893;DHT22;1456;51.840;12.184;2023-02-07T00:18:51;-5.30;99.90
2893;DHT22;1456;51.840;12.184;2023-02-07T00:21:20;-5.30;99.90
2893;DHT22;1456;51.840;12.184;2023-02-07T00:23:46;-5.30;99.90
2893;DHT22;1456;51.840;12.184;2023-02-07T00:26:13;-5.40;99.90
2893;DHT22;1456;51.840;12.184;2023-02-07T00:28:39;-5.40;99.90
2893;DHT22;1456;51.840;12.184;2023-02-07T00:33:39;-5.50;99.90
2893;DHT22;1456;51.840;12.184;2023-02-07T00:36:07;-5.50;99.90
2893;DHT22;1456;51.840;12.184;2023-02-07T00:38:33;-5.40;99.90
2893;DHT22;1456;51.840;12.184;2023-02-07T00:40:59;-5.60;99.90
2893;DHT22;1456;51.840;12.184;2023-02-07T00:43:28;-5.40;99.90
2893;DHT22;1456;51.840;12.184;2023-02-07T00:45:56;-5.60;99.90
2893;DHT22;1456;51.840;12.184;2023-02-07T00:48:22;-5.50;99.90
2893;DHT22;1456;51.840;12.184;2023-02-07T00:50:47;-5.70;99.90
2893;DHT22;1456;51.840;12.184;2023-02-07T00:53:13;-5.60;99.90
2893;DHT22;1456;51.840;12.184;2023-02-07T00:55:39;-5.70;99.90
2893;DHT22;1456;51.840;12.184;2023-02-07T00:58:04;-5.60;99.90
2893;DHT22;1456;51.840;12.184;2023-02-07T01:00:30;-5.60;99.90
2893;DHT22;1456;51.840;12.184;2023-02-07T01:02:56;-5.80;99.90
2893;DHT22;1456;51.840;12.184;2023-02-07T01:05:21;-5.80;99.90
2893;DHT22;1456;51.840;12.184;2023-02-07T01:07:47;-5.80;99.90
2893;DHT22;1456;51.840;12.184;2023-02-07T01:10:13;-5.80;99.90
2893;DHT22;1456;51.840;12.184;2023-02-07T01:12:38;-5.90;99.90
2893;DHT22;1456;51.840;12.184;2023-02-07T01:15:04;-5.90;99.90
2893;DHT22;1456;51.840;12.184;2023-02-07T01:17:32;-5.90;99.90
2893;DHT22;1456;51.840;12.184;2023-02-07T01:20:01;-6.00;99.90
2893;DHT22;1456;51.840;12.184;2023-02-07T01:22:26;-6.00;99.90
2893;DHT22;1456;51.840;12.184;2023-02-07T01:24:53;-6.00;99.90
2893;DHT22;1456;51.840;12.184;2023-02-07T01:27:20;-6.00;99.90
2893;DHT22;1456;51.840;12.184;2023-02-07T01:29:46;-6.10;99.90
2893;DHT22;1456;51.840;12.184;2023-02-07T01:32:12;-6.10;99.90
2893;DHT22;1456;51.840;12.184;2023-02-07T01:34:38;-6.10;99.90
2893;DHT22;1456;51.840;12.184;2023-02-07T01:37:03;-6.10;99.90
2893;DHT22;1456;51.840;12.184;2023-02-07T01:39:30;-6.10;99.90
2893;DHT22;1456;51.840;12.184;2023-02-07T01:41:56;-6.10;99.90
2893;DHT22;1456;51.840;12.184;2023-02-07T01:46:49;-6.10;99.90
2893;DHT22;1456;51.840;12.184;2023-02-07T01:49:17;-6.20;99.90
2893;DHT22;1456;51.840;12.184;2023-02-07T01:51:52;-6.00;99.90
2893;DHT22;1456;51.840;12.184;2023-02-07T01:54:18;-6.30;99.90
2893;DHT22;1456;51.840;12.184;2023-02-07T01:56:54;-6.30;99.90
2893;DHT22;1456;51.840;12.184;2023-02-07T01:59:23;-6.30;99.90
2893;DHT22;1456;51.840;12.184;2023-02-07T02:01:50;-6.30;99.90
2893;DHT22;1456;51.840;12.184;2023-02-07T02:04:16;-6.30;99.90
2893;DHT22;1456;51.840;12.184;2023-02-07T02:06:42;-6.30;99.90
2893;DHT22;1456;51.840;12.184;2023-02-07T02:09:13;-6.30;99.90
2893;DHT22;1456;51.840;12.184;2023-02-07T02:17:50;-6.40;99.90
2893;DHT22;1456;51.840;12.184;2023-02-07T02:31:20;-6.60;99.90
2893;DHT22;1456;51.840;12.184;2023-02-07T02:37:11;-6.50;99.90
2893;DHT22;1456;51.840;12.184;2023-02-07T02:39:51;-6.50;99.90
2893;DHT22;1456;51.840;12.184;2023-02-07T02:42:31;-6.50;99.90
2893;DHT22;1456;51.840;12.184;2023-02-07T02:45:10;-6.40;99.90
2893;DHT22;1456;51.840;12.184;2023-02-07T02:47:39;-6.40;99.90
2893;DHT22;1456;51.840;12.184;2023-02-07T02:50:16;-6.30;99.90
2893;DHT22;1456;51.840;12.184;2023-02-07T02:52:43;-6.30;99.90
2893;DHT22;1456;51.840;12.184;2023-02-07T02:55:09;-6.30;99.90
2893;DHT22;1456;51.840;12.184;2023-02-07T02:58:02;-6.20;99.90
2893;DHT22;1456;51.840;12.184;2023-02-07T03:11:17;-5.80;99.90
2893;DHT22;1456;51.840;12.184;2023-02-07T03:13:49;-5.80;99.90
2893;DHT22;1456;51.840;12.184;2023-02-07T03:19:11;-5.70;99.90
2893;DHT22;1456;51.840;12.184;2023-02-07T03:21:44;-5.70;99.90
2893;DHT22;1456;51.840;12.184;2023-02-07T03:24:20;-5.60;99.90
2893;DHT22;1456;51.840;12.184;2023-02-07T03:26:47;-5.60;99.90
2893;DHT22;1456;51.840;12.184;2023-02-07T03:29:16;-5.50;99.90
2893;DHT22;1456;51.840;12.184;2023-02-07T03:31:45;-5.60;99.90
2893;DHT22;1456;51.840;12.184;2023-02-07T03:34:19;-5.60;99.90
2893;DHT22;1456;51.840;12.184;2023-02-07T03:39:49;-5.50;99.90
2893;DHT22;1456;51.840;12.184;2023-02-07T03:42:31;-5.50;99.90
2893;DHT22;1456;51.840;12.184;2023-02-07T03:45:00;-5.40;99.90
2893;DHT22;1456;51.840;12.184;2023-02-07T03:47:27;-5.20;99.90
2893;DHT22;1456;51.840;12.184;2023-02-07T03:49:53;-5.50;99.90
2893;DHT22;1456;51.840;12.184;2023-02-07T03:52:19;-5.50;99.90
2893;DHT22;1456;51.840;12.184;2023-02-07T03:54:45;-5.60;99.90
2893;DHT22;1456;51.840;12.184;2023-02-07T03:57:10;-5.60;99.90
2893;DHT22;1456;51.840;12.184;2023-02-07T03:59:36;-5.60;99.90
2893;DHT22;1456;51.840;12.184;2023-02-07T04:02:02;-5.60;99.90
2893;DHT22;1456;51.840;12.184;2023-02-07T04:04:28;-5.60;99.90
2893;DHT22;1456;51.840;12.184;2023-02-07T04:06:54;-5.60;99.90
2893;DHT22;1456;51.840;12.184;2023-02-07T04:09:21;-5.60;99.90
2893;DHT22;1456;51.840;12.184;2023-02-07T04:11:50;-5.50;99.90
2893;DHT22;1456;51.840;12.184;2023-02-07T04:14:17;-5.40;99.90
2893;DHT22;1456;51.840;12.184;2023-02-07T04:16:45;-5.50;99.90
2893;DHT22;1456;51.840;12.184;2023-02-07T04:19:11;-5.50;99.90
2893;DHT22;1456;51.840;12.184;2023-02-07T04:21:36;-5.50;99.90
2893;DHT22;1456;51.840;12.184;2023-02-07T04:24:02;-5.50;99.90
2893;DHT22;1456;51.840;12.184;2023-02-07T04:26:28;-5.60;99.90
2893;DHT22;1456;51.840;12.184;2023-02-07T04:28:54;-5.40;99.90
2893;DHT22;1456;51.840;12.184;2023-02-07T04:31:20;-5.70;99.90
2893;DHT22;1456;51.840;12.184;2023-02-07T04:33:47;-5.70;99.90
2893;DHT22;1456;51.840;12.184;2023-02-07T04:36:13;-5.60;99.90
2893;DHT22;1456;51.840;12.184;2023-02-07T04:38:38;-5.70;99.90
2893;DHT22;1456;51.840;12.184;2023-02-07T04:41:06;-5.80;99.90
2893;DHT22;1456;51.840;12.184;2023-02-07T04:43:33;-5.70;99.90
2893;DHT22;1456;51.840;12.184;2023-02-07T04:46:02;-5.70;99.90
2893;DHT22;1456;51.840;12.184;2023-02-07T04:48:28;-5.80;99.90
2893;DHT22;1456;51.840;12.184;2023-02-07T04:50:54;-5.80;99.90
2893;DHT22;1456;51.840;12.184;2023-02-07T04:53:20;-5.90;99.90
2893;DHT22;1456;51.840;12.184;2023-02-07T04:55:50;-5.90;99.90
2893;DHT22;1456;51.840;12.184;2023-02-07T04:58:17;-5.90;99.90
2893;DHT22;1456;51.840;12.184;2023-02-07T05:00:43;-6.00;99.90
2893;DHT22;1456;51.840;12.184;2023-02-07T05:03:09;-6.00;99.90
2893;DHT22;1456;51.840;12.184;2023-02-07T05:05:40;-6.10;99.90
2893;DHT22;1456;51.840;12.184;2023-02-07T05:08:07;-6.20;99.90
2893;DHT22;1456;51.840;12.184;2023-02-07T05:10:33;-6.20;99.90
2893;DHT22;1456;51.840;12.184;2023-02-07T05:13:01;-6.30;99.90
2893;DHT22;1456;51.840;12.184;2023-02-07T05:15:28;-6.40;99.90
2893;DHT22;1456;51.840;12.184;2023-02-07T05:17:54;-6.50;99.90
2893;DHT22;1456;51.840;12.184;2023-02-07T05:20:21;-6.60;99.90
2893;DHT22;1456;51.840;12.184;2023-02-07T05:22:48;-6.60;99.90
2893;DHT22;1456;51.840;12.184;2023-02-07T05:25:14;-6.50;99.90
2893;DHT22;1456;51.840;12.184;2023-02-07T05:27:40;-6.70;99.90
2893;DHT22;1456;51.840;12.184;2023-02-07T05:30:06;-6.70;99.90
2893;DHT22;1456;51.840;12.184;2023-02-07T05:32:32;-6.80;99.90
2893;DHT22;1456;51.840;12.184;2023-02-07T05:35:16;-6.80;99.90
2893;DHT22;1456;51.840;12.184;2023-02-07T05:37:42;-6.90;99.90
2893;DHT22;1456;51.840;12.184;2023-02-07T05:40:08;-6.70;99.90
2893;DHT22;1456;51.840;12.184;2023-02-07T05:42:35;-6.90;99.90
2893;DHT22;1456;51.840;12.184;2023-02-07T05:45:00;-6.90;99.90
2893;DHT22;1456;51.840;12.184;2023-02-07T05:47:26;-6.80;99.90
2893;DHT22;1456;51.840;12.184;2023-02-07T05:49:52;-7.00;99.90
2893;DHT22;1456;51.840;12.184;2023-02-07T05:52:17;-6.80;99.90
2893;DHT22;1456;51.840;12.184;2023-02-07T05:54:43;-7.10;99.90
2893;DHT22;1456;51.840;12.184;2023-02-07T05:57:10;-7.10;99.90
2893;DHT22;1456;51.840;12.184;2023-02-07T05:59:36;-7.00;99.90
2893;DHT22;1456;51.840;12.184;2023-02-07T06:02:01;-7.10;99.90
2893;DHT22;1456;51.840;12.184;2023-02-07T06:04:27;-7.20;99.90
2893;DHT22;1456;51.840;12.184;2023-02-07T06:06:52;-7.20;99.90
2893;DHT22;1456;51.840;12.184;2023-02-07T06:09:18;-7.20;99.90
2893;DHT22;1456;51.840;12.184;2023-02-07T06:11:44;-7.20;99.90
2893;DHT22;1456;51.840;12.184;2023-02-07T06:14:10;-7.20;99.90
2893;DHT22;1456;51.840;12.184;2023-02-07T06:16:35;-7.30;99.90
2893;DHT22;1456;51.840;12.184;2023-02-07T06:19:01;-7.30;99.90
2893;DHT22;1456;51.840;12.184;2023-02-07T06:21:26;-7.30;99.90
2893;DHT22;1456;51.840;12.184;2023-02-07T06:23:52;-7.30;99.90
2893;DHT22;1456;51.840;12.184;2023-02-07T06:26:18;-7.30;99.90
2893;DHT22;1456;51.840;12.184;2023-02-07T06:28:44;-7.30;99.90
2893;DHT22;1456;51.840;12.184;2023-02-07T06:31:09;-7.30;99.90
2893;DHT22;1456;51.840;12.184;2023-02-07T06:33:35;-7.20;99.90
2893;DHT22;1456;51.840;12.184;2023-02-07T06:36:01;-7.30;99.90
2893;DHT22;1456;51.840;12.184;2023-02-07T06:38:27;-7.40;99.90
2893;DHT22;1456;51.840;12.184;2023-02-07T06:40:53;-7.50;99.90
2893;DHT22;1456;51.840;12.184;2023-02-07T06:43:18;-7.50;99.90
2893;DHT22;1456;51.840;12.184;2023-02-07T06:45:44;-7.40;99.90
2893;DHT22;1456;51.840;12.184;2023-02-07T06:48:11;-7.40;99.90
2893;DHT22;1456;51.840;12.184;2023-02-07T06:50:37;-7.40;99.90
2893;DHT22;1456;51.840;12.184;2023-02-07T06:53:03;-7.40;99.90
2893;DHT22;1456;51.840;12.184;2023-02-07T06:55:37;-7.20;99.90
2893;DHT22;1456;51.840;12.184;2023-02-07T06:58:04;-7.40;99.90
2893;DHT22;1456;51.840;12.184;2023-02-07T07:00:30;-7.30;99.90
2893;DHT22;1456;51.840;12.184;2023-02-07T07:02:56;-7.30;99.90
2893;DHT22;1456;51.840;12.184;2023-02-07T07:05:21;-7.30;99.90
2893;DHT22;1456;51.840;12.184;2023-02-07T07:07:47;-7.30;99.90
2893;DHT22;1456;51.840;12.184;2023-02-07T07:10:15;-7.30;99.90
2893;DHT22;1456;51.840;12.184;2023-02-07T07:12:41;-7.20;99.90
2893;DHT22;1456;51.840;12.184;2023-02-07T07:15:07;-7.10;99.90
2893;DHT22;1456;51.840;12.184;2023-02-07T07:17:33;-7.10;99.90
2893;DHT22;1456;51.840;12.184;2023-02-07T07:19:58;-7.00;99.90
2893;DHT22;1456;51.840;12.184;2023-02-07T07:22:25;-6.90;99.90
2893;DHT22;1456;51.840;12.184;2023-02-07T07:24:50;-6.80;99.90
2893;DHT22;1456;51.840;12.184;2023-02-07T07:27:16;-6.60;99.90
2893;DHT22;1456;51.840;12.184;2023-02-07T07:29:42;-6.70;99.90
2893;DHT22;1456;51.840;12.184;2023-02-07T07:32:08;-6.60;99.90
2893;DHT22;1456;51.840;12.184;2023-02-07T07:34:36;-6.50;99.90
2893;DHT22;1456;51.840;12.184;2023-02-07T07:37:03;-6.40;99.90
2893;DHT22;1456;51.840;12.184;2023-02-07T07:39:28;-6.40;99.90
2893;DHT22;1456;51.840;12.184;2023-02-07T07:41:54;-6.30;99.90
2893;DHT22;1456;51.840;12.184;2023-02-07T07:44:20;-6.10;99.90
2893;DHT22;1456;51.840;12.184;2023-02-07T07:46:46;-6.00;99.90
2893;DHT22;1456;51.840;12.184;2023-02-07T07:49:11;-5.90;99.90
2893;DHT22;1456;51.840;12.184;2023-02-07T07:51:37;-5.70;99.90
2893;DHT22;1456;51.840;12.184;2023-02-07T07:54:03;-5.50;99.90
2893;DHT22;1456;51.840;12.184;2023-02-07T07:56:28;-5.20;99.90
2893;DHT22;1456;51.840;12.184;2023-02-07T07:58:55;-5.20;99.90
2893;DHT22;1456;51.840;12.184;2023-02-07T08:01:21;-5.10;99.90
2893;DHT22;1456;51.840;12.184;2023-02-07T08:03:47;-5.10;99.90
2893;DHT22;1456;51.840;12.184;2023-02-07T08:06:13;-4.80;99.90
2893;DHT22;1456;51.840;12.184;2023-02-07T08:08:39;-4.90;99.90
2893;DHT22;1456;51.840;12.184;2023-02-07T08:11:06;-4.80;99.90
2893;DHT22;1456;51.840;12.184;2023-02-07T08:13:34;-4.70;99.90
2893;DHT22;1456;51.840;12.184;2023-02-07T08:16:01;-4.50;99.90
2893;DHT22;1456;51.840;12.184;2023-02-07T08:18:27;-4.60;99.90
2893;DHT22;1456;51.840;12.184;2023-02-07T08:20:53;-4.60;99.90
2893;DHT22;1456;51.840;12.184;2023-02-07T08:23:19;-4.60;99.90
2893;DHT22;1456;51.840;12.184;2023-02-07T08:25:45;-4.60;99.90
2893;DHT22;1456;51.840;12.184;2023-02-07T08:28:15;-4.70;99.90
2893;DHT22;1456;51.840;12.184;2023-02-07T08:30:42;-4.70;99.90
2893;DHT22;1456;51.840;12.184;2023-02-07T08:33:08;-4.80;99.90
2893;DHT22;1456;51.840;12.184;2023-02-07T08:35:33;-4.80;99.90
2893;DHT22;1456;51.840;12.184;2023-02-07T08:38:00;-4.80;99.90
2893;DHT22;1456;51.840;12.184;2023-02-07T08:40:26;-4.70;99.90
2893;DHT22;1456;51.840;12.184;2023-02-07T08:42:53;-4.60;99.90
2893;DHT22;1456;51.840;12.184;2023-02-07T08:45:18;-4.50;99.90
2893;DHT22;1456;51.840;12.184;2023-02-07T08:47:44;-4.20;99.90
2893;DHT22;1456;51.840;12.184;2023-02-07T08:50:12;-4.20;99.90
2893;DHT22;1456;51.840;12.184;2023-02-07T08:52:38;-3.90;99.90
2893;DHT22;1456;51.840;12.184;2023-02-07T08:55:04;-3.70;99.90
2893;DHT22;1456;51.840;12.184;2023-02-07T08:57:30;-3.50;99.90
2893;DHT22;1456;51.840;12.184;2023-02-07T08:59:57;-3.40;99.90
2893;DHT22;1456;51.840;12.184;2023-02-07T09:02:24;-3.30;99.90
2893;DHT22;1456;51.840;12.184;2023-02-07T09:04:50;-3.40;99.90
2893;DHT22;1456;51.840;12.184;2023-02-07T09:07:17;-3.50;99.90
2893;DHT22;1456;51.840;12.184;2023-02-07T09:09:43;-3.40;99.90
2893;DHT22;1456;51.840;12.184;2023-02-07T09:12:09;-3.40;99.90
2893;DHT22;1456;51.840;12.184;2023-02-07T09:14:36;-3.50;99.90
2893;DHT22;1456;51.840;12.184;2023-02-07T09:17:02;-3.40;99.90
2893;DHT22;1456;51.840;12.184;2023-02-07T09:19:28;-3.30;99.90
2893;DHT22;1456;51.840;12.184;2023-02-07T09:21:54;-3.20;99.90
2893;DHT22;1456;51.840;12.184;2023-02-07T09:24:20;-3.10;99.90
2893;DHT22;1456;51.840;12.184;2023-02-07T09:26:45;-2.70;99.90
2893;DHT22;1456;51.840;12.184;2023-02-07T09:29:13;-2.50;99.90
2893;DHT22;1456;51.840;12.184;2023-02-07T09:31:39;-2.30;99.90
2893;DHT22;1456;51.840;12.184;2023-02-07T09:34:06;-2.10;99.90
2893;DHT22;1456;51.840;12.184;2023-02-07T09:36:32;-2.00;99.90
2893;DHT22;1456;51.840;12.184;2023-02-07T09:39:00;-1.80;99.90
2893;DHT22;1456;51.840;12.184;2023-02-07T09:44:27;-1.80;99.90
2893;DHT22;1456;51.840;12.184;2023-02-07T09:47:06;-1.70;99.90
2893;DHT22;1456;51.840;12.184;2023-02-07T09:53:09;-1.80;99.90
2893;DHT22;1456;51.840;12.184;2023-02-07T09:55:45;-1.70;99.90
2893;DHT22;1456;51.840;12.184;2023-02-07T09:58:32;-1.60;99.90
2893;DHT22;1456;51.840;12.184;2023-02-07T10:01:30;-1.70;99.90
2893;DHT22;1456;51.840;12.184;2023-02-07T10:06:40;-1.70;99.90
2893;DHT22;1456;51.840;12.184;2023-02-07T10:09:14;-1.50;99.90
2893;DHT22;1456;51.840;12.184;2023-02-07T10:11:50;-1.40;99.90
2893;DHT22;1456;51.840;12.184;2023-02-07T10:17:04;-1.20;99.90
2893;DHT22;1456;51.840;12.184;2023-02-07T10:25:47;-0.80;99.90
2893;DHT22;1456;51.840;12.184;2023-02-07T10:31:13;-1.10;99.90
2893;DHT22;1456;51.840;12.184;2023-02-07T10:34:09;-1.30;99.90
2893;DHT22;1456;51.840;12.184;2023-02-07T10:36:35;-1.30;99.90
2893;DHT22;1456;51.840;12.184;2023-02-07T10:39:11;-1.30;99.90
2893;DHT22;1456;51.840;12.184;2023-02-07T10:41:40;-1.40;99.90
2893;DHT22;1456;51.840;12.184;2023-02-07T10:44:16;-1.00;99.90
2893;DHT22;1456;51.840;12.184;2023-02-07T10:46:44;-1.00;99.90
2893;DHT22;1456;51.840;12.184;2023-02-07T10:49:20;-0.80;99.90
2893;DHT22;1456;51.840;12.184;2023-02-07T10:51:46;-0.40;99.90
2893;DHT22;1456;51.840;12.184;2023-02-07T10:54:18;-0.40;99.90
2893;DHT22;1456;51.840;12.184;2023-02-07T10:56:47;-0.60;99.90
2893;DHT22;1456;51.840;12.184;2023-02-07T11:01:56;-0.40;99.90
2893;DHT22;1456;51.840;12.184;2023-02-07T11:04:42;-0.40;99.90
2893;DHT22;1456;51.840;12.184;2023-02-07T11:07:14;0.00;99.90
2893;DHT22;1456;51.840;12.184;2023-02-07T11:09:40;0.30;99.90
2893;DHT22;1456;51.840;12.184;2023-02-07T11:12:22;0.60;99.90
2893;DHT22;1456;51.840;12.184;2023-02-07T11:15:07;0.80;99.90
2893;DHT22;1456;51.840;12.184;2023-02-07T11:17:44;1.10;99.90
2893;DHT22;1456;51.840;12.184;2023-02-07T11:20:38;1.00;99.90
2893;DHT22;1456;51.840;12.184;2023-02-07T11:23:13;1.10;99.90
2893;DHT22;1456;51.840;12.184;2023-02-07T11:25:45;1.30;99.90
2893;DHT22;1456;51.840;12.184;2023-02-07T11:28:28;1.50;99.90
2893;DHT22;1456;51.840;12.184;2023-02-07T11:31:05;1.60;99.90
2893;DHT22;1456;51.840;12.184;2023-02-07T11:33:34;1.80;99.90
2893;DHT22;1456;51.840;12.184;2023-02-07T11:36:27;1.90;99.90
2893;DHT22;1456;51.840;12.184;2023-02-07T11:38:58;1.80;99.90
2893;DHT22;1456;51.840;12.184;2023-02-07T11:41:27;1.70;99.90
2893;DHT22;1456;51.840;12.184;2023-02-07T11:44:22;1.80;99.90
2893;DHT22;1456;51.840;12.184;2023-02-07T11:46:47;1.90;99.90
2893;DHT22;1456;51.840;12.184;2023-02-07T11:52:03;2.30;99.90
2893;DHT22;1456;51.840;12.184;2023-02-07T11:54:30;2.30;99.90
2893;DHT22;1456;51.840;12.184;2023-02-07T11:57:04;2.50;99.90
2893;DHT22;1456;51.840;12.184;2023-02-07T11:59:32;2.90;99.90
2893;DHT22;1456;51.840;12.184;2023-02-07T12:02:22;3.20;99.90
2893;DHT22;1456;51.840;12.184;2023-02-07T12:04:46;3.30;99.90
2893;DHT22;1456;51.840;12.184;2023-02-07T12:07:22;3.30;99.90
2893;DHT22;1456;51.840;12.184;2023-02-07T12:10:03;3.10;99.90
2893;DHT22;1456;51.840;12.184;2023-02-07T12:20:24;2.50;99.90
2893;DHT22;1456;51.840;12.184;2023-02-07T12:25:36;2.90;99.90
2893;DHT22;1456;51.840;12.184;2023-02-07T12:28:21;3.00;99.90
2893;DHT22;1456;51.840;12.184;2023-02-07T12:30:50;3.20;99.90
2893;DHT22;1456;51.840;12.184;2023-02-07T12:33:31;3.40;99.90
2893;DHT22;1456;51.840;12.184;2023-02-07T12:36:14;3.50;99.90
2893;DHT22;1456;51.840;12.184;2023-02-07T12:41:39;3.80;99.90
2893;DHT22;1456;51.840;12.184;2023-02-07T12:44:37;3.40;99.90
2893;DHT22;1456;51.840;12.184;2023-02-07T12:52:53;2.50;99.90
2893;DHT22;1456;51.840;12.184;2023-02-07T12:58:41;2.40;99.90
2893;DHT22;1456;51.840;12.184;2023-02-07T13:01:43;2.70;99.90
2893;DHT22;1456;51.840;12.184;2023-02-07T13:04:30;3.90;99.90
2893;DHT22;1456;51.840;12.184;2023-02-07T13:15:42;7.20;92.90
2893;DHT22;1456;51.840;12.184;2023-02-07T13:21:06;8.10;93.40
2893;DHT22;1456;51.840;12.184;2023-02-07T13:23:36;8.60;91.50
2893;DHT22;1456;51.840;12.184;2023-02-07T13:26:13;9.00;90.90
2893;DHT22;1456;51.840;12.184;2023-02-07T13:28:52;9.50;90.00
2893;DHT22;1456;51.840;12.184;2023-02-07T13:31:23;9.60;88.90
2893;DHT22;1456;51.840;12.184;2023-02-07T13:33:49;9.60;86.80
2893;DHT22;1456;51.840;12.184;2023-02-07T13:41:44;11.00;83.90
2893;DHT22;1456;51.840;12.184;2023-02-07T13:47:08;9.60;83.60
2893;DHT22;1456;51.840;12.184;2023-02-07T13:50:28;9.60;85.40
2893;DHT22;1456;51.840;12.184;2023-02-07T13:57:50;7.50;85.10
2893;DHT22;1456;51.840;12.184;2023-02-07T14:03:31;7.50;91.30
2893;DHT22;1456;51.840;12.184;2023-02-07T14:06:25;8.50;89.60
2893;DHT22;1456;51.840;12.184;2023-02-07T14:09:14;9.50;87.60
2893;DHT22;1456;51.840;12.184;2023-02-07T14:11:43;9.70;85.80
2893;DHT22;1456;51.840;12.184;2023-02-07T14:14:29;9.70;86.40
2893;DHT22;1456;51.840;12.184;2023-02-07T14:17:01;9.50;85.50
2893;DHT22;1456;51.840;12.184;2023-02-07T14:22:31;7.50;84.70
2893;DHT22;1456;51.840;12.184;2023-02-07T14:25:21;5.60;88.60
2893;DHT22;1456;51.840;12.184;2023-02-07T14:33:20;3.80;96.30
2893;DHT22;1456;51.840;12.184;2023-02-07T14:41:30;4.50;94.90
2893;DHT22;1456;51.840;12.184;2023-02-07T14:43:58;5.20;95.10
2893;DHT22;1456;51.840;12.184;2023-02-07T14:46:29;5.70;94.20
2893;DHT22;1456;51.840;12.184;2023-02-07T14:51:37;5.80;92.60
2893;DHT22;1456;51.840;12.184;2023-02-07T15:02:36;5.30;92.60
2893;DHT22;1456;51.840;12.184;2023-02-07T15:05:30;4.80;93.20
2893;DHT22;1456;51.840;12.184;2023-02-07T15:10:39;3.30;93.70
2893;DHT22;1456;51.840;12.184;2023-02-07T15:13:17;2.20;95.80
2893;DHT22;1456;51.840;12.184;2023-02-07T15:18:18;1.30;98.90
2893;DHT22;1456;51.840;12.184;2023-02-07T15:20:49;1.30;99.90
2893;DHT22;1456;51.840;12.184;2023-02-07T15:23:16;1.20;99.80
2893;DHT22;1456;51.840;12.184;2023-02-07T15:25:45;0.90;99.90
2893;DHT22;1456;51.840;12.184;2023-02-07T15:28:24;0.60;99.90
2893;DHT22;1456;51.840;12.184;2023-02-07T15:31:15;0.30;99.90
2893;DHT22;1456;51.840;12.184;2023-02-07T15:33:49;0.00;99.90
2893;DHT22;1456;51.840;12.184;2023-02-07T15:36:39;-0.30;99.90
2893;DHT22;1456;51.840;12.184;2023-02-07T15:39:16;-0.40;99.90
2893;DHT22;1456;51.840;12.184;2023-02-07T15:41:46;-0.50;99.90
2893;DHT22;1456;51.840;12.184;2023-02-07T15:44:24;-0.70;99.90
2893;DHT22;1456;51.840;12.184;2023-02-07T15:46:56;-0.70;99.90
2893;DHT22;1456;51.840;12.184;2023-02-07T15:49:37;-0.90;99.90
2893;DHT22;1456;51.840;12.184;2023-02-07T15:54:52;-1.20;99.90
2893;DHT22;1456;51.840;12.184;2023-02-07T15:57:29;-1.40;99.90
2893;DHT22;1456;51.840;12.184;2023-02-07T16:00:18;-1.50;99.90
2893;DHT22;1456;51.840;12.184;2023-02-07T16:02:54;-1.80;99.90
2893;DHT22;1456;51.840;12.184;2023-02-07T16:05:27;-2.00;99.90
2893;DHT22;1456;51.840;12.184;2023-02-07T16:07:55;-2.10;99.90
2893;DHT22;1456;51.840;12.184;2023-02-07T16:10:32;-2.10;99.90
2893;DHT22;1456;51.840;12.184;2023-02-07T16:15:38;-2.20;99.90
2893;DHT22;1456;51.840;12.184;2023-02-07T16:18:43;-2.30;99.90
2893;DHT22;1456;51.840;12.184;2023-02-07T16:21:20;-2.20;99.90
2893;DHT22;1456;51.840;12.184;2023-02-07T16:23:49;-2.20;99.90
2893;DHT22;1456;51.840;12.184;2023-02-07T16:26:18;-2.30;99.90
2893;DHT22;1456;51.840;12.184;2023-02-07T16:28:45;-2.40;99.90
2893;DHT22;1456;51.840;12.184;2023-02-07T16:31:12;-2.40;99.90
2893;DHT22;1456;51.840;12.184;2023-02-07T16:33:38;-2.40;99.90
2893;DHT22;1456;51.840;12.184;2023-02-07T16:36:04;-2.10;99.90
2893;DHT22;1456;51.840;12.184;2023-02-07T16:38:31;-2.20;99.90
2893;DHT22;1456;51.840;12.184;2023-02-07T16:40:57;-2.10;99.90
2893;DHT22;1456;51.840;12.184;2023-02-07T16:43:37;-2.00;99.90
2893;DHT22;1456;51.840;12.184;2023-02-07T16:46:04;-1.90;99.90
2893;DHT22;1456;51.840;12.184;2023-02-07T16:48:30;-1.80;99.90
2893;DHT22;1456;51.840;12.184;2023-02-07T16:50:55;-1.90;99.90
2893;DHT22;1456;51.840;12.184;2023-02-07T16:53:25;-1.90;99.90
2893;DHT22;1456;51.840;12.184;2023-02-07T16:55:52;-1.80;99.90
2893;DHT22;1456;51.840;12.184;2023-02-07T16:58:29;-1.70;99.90
2893;DHT22;1456;51.840;12.184;2023-02-07T17:00:55;-1.90;99.90
2893;DHT22;1456;51.840;12.184;2023-02-07T17:03:22;-2.00;99.90
2893;DHT22;1456;51.840;12.184;2023-02-07T17:05:49;-1.80;99.90
2893;DHT22;1456;51.840;12.184;2023-02-07T17:08:17;-1.90;99.90
2893;DHT22;1456;51.840;12.184;2023-02-07T17:11:03;-1.90;99.90
2893;DHT22;1456;51.840;12.184;2023-02-07T17:13:32;-2.00;99.90
2893;DHT22;1456;51.840;12.184;2023-02-07T17:15:58;-1.90;99.90
2893;DHT22;1456;51.840;12.184;2023-02-07T17:18:25;-1.80;99.90
2893;DHT22;1456;51.840;12.184;2023-02-07T17:20:51;-1.80;99.90
2893;DHT22;1456;51.840;12.184;2023-02-07T17:23:17;-1.80;99.90
2893;DHT22;1456;51.840;12.184;2023-02-07T17:25:43;-1.80;99.90
2893;DHT22;1456;51.840;12.184;2023-02-07T17:28:11;-1.90;99.90
2893;DHT22;1456;51.840;12.184;2023-02-07T17:30:39;-1.90;99.90
2893;DHT22;1456;51.840;12.184;2023-02-07T17:33:06;-2.00;99.90
2893;DHT22;1456;51.840;12.184;2023-02-07T17:35:32;-2.00;99.90
2893;DHT22;1456;51.840;12.184;2023-02-07T17:37:58;-2.00;99.90
2893;DHT22;1456;51.840;12.184;2023-02-07T17:40:35;-2.00;99.90
2893;DHT22;1456;51.840;12.184;2023-02-07T17:43:02;-2.10;99.90
2893;DHT22;1456;51.840;12.184;2023-02-07T17:45:29;-2.00;99.90
2893;DHT22;1456;51.840;12.184;2023-02-07T17:47:55;-2.00;99.90
2893;DHT22;1456;51.840;12.184;2023-02-07T17:50:30;-1.90;99.90
2893;DHT22;1456;51.840;12.184;2023-02-07T17:52:59;-1.90;99.90
2893;DHT22;1456;51.840;12.184;2023-02-07T17:55:29;-1.90;99.90
2893;DHT22;1456;51.840;12.184;2023-02-07T17:57:55;-2.00;99.90
2893;DHT22;1456;51.840;12.184;2023-02-07T18:00:24;-1.80;99.90
2893;DHT22;1456;51.840;12.184;2023-02-07T18:02:50;-2.00;99.90
2893;DHT22;1456;51.840;12.184;2023-02-07T18:05:17;-2.00;99.90
2893;DHT22;1456;51.840;12.184;2023-02-07T18:07:44;-1.90;99.90
2893;DHT22;1456;51.840;12.184;2023-02-07T18:10:13;-1.90;99.90
2893;DHT22;1456;51.840;12.184;2023-02-07T18:12:42;-2.00;99.90
2893;DHT22;1456;51.840;12.184;2023-02-07T18:15:08;-2.00;99.90
2893;DHT22;1456;51.840;12.184;2023-02-07T18:17:36;-2.10;99.90
2893;DHT22;1456;51.840;12.184;2023-02-07T18:20:03;-2.10;99.90
2893;DHT22;1456;51.840;12.184;2023-02-07T18:22:30;-2.10;99.90
2893;DHT22;1456;51.840;12.184;2023-02-07T18:24:55;-2.00;99.90
2893;DHT22;1456;51.840;12.184;2023-02-07T18:27:21;-2.00;99.90
2893;DHT22;1456;51.840;12.184;2023-02-07T18:29:47;-2.00;99.90
2893;DHT22;1456;51.840;12.184;2023-02-07T18:32:14;-2.00;99.90
2893;DHT22;1456;51.840;12.184;2023-02-07T18:34:40;-2.20;99.90
2893;DHT22;1456;51.840;12.184;2023-02-07T18:37:07;-2.20;99.90
2893;DHT22;1456;51.840;12.184;2023-02-07T18:39:33;-2.10;99.90
2893;DHT22;1456;51.840;12.184;2023-02-07T18:41:59;-2.20;99.90